Time;durP1;ratioP1;P1;durP2;ratioP2;P2;SDS_P1;SDS_P2;PMS_P1;PMS_P2;Temp;Humidity;BMP_temperature;BMP_pressure;BME280_temperature;BME280_humidity;BME280_pressure;Samples;Min_cycle;Max_cycle;Signal;HPM_P1;HPM_P2
2023/06/04 00:00:57;;;;;;;0.60;0.60;;;;;;;11.90;44.70;101470.69;4864433;29;20063;-78
2023/06/04 00:03:26;;;;;;;1.08;0.82;;;;;;;11.85;44.80;101461.97;4901773;29;20136;-79
2023/06/04 00:05:53;;;;;;;1.10;0.98;;;;;;;11.82;44.92;101461.97;4884147;29;20055;-78
2023/06/04 00:08:19;;;;;;;1.23;1.17;;;;;;;11.73;45.41;101460.22;4878931;29;20056;-79
2023/06/04 00:10:46;;;;;;;1.17;0.75;;;;;;;11.68;45.60;101455.00;4895607;29;20044;-79
2023/06/04 00:13:12;;;;;;;0.60;0.60;;;;;;;11.66;45.65;101458.50;4884900;29;20063;-80
2023/06/04 00:15:39;;;;;;;3.17;0.90;;;;;;;11.66;45.68;101461.97;4879472;29;20044;-80
2023/06/04 00:18:05;;;;;;;4.28;0.90;;;;;;;11.64;45.76;101455.88;4899248;29;20079;-91
2023/06/04 00:20:32;;;;;;;2.78;1.08;;;;;;;11.61;45.70;101457.63;4875370;29;20060;-79
2023/06/04 00:22:58;;;;;;;1.20;1.05;;;;;;;11.57;45.72;101459.38;4883112;29;20056;-78
2023/06/04 00:25:25;;;;;;;1.88;1.50;;;;;;;11.57;45.91;101455.00;4878900;29;20495;-79
2023/06/04 00:27:52;;;;;;;2.67;1.80;;;;;;;11.57;46.00;101451.50;4883451;29;20052;-79
2023/06/04 00:30:19;;;;;;;3.40;1.73;;;;;;;11.54;45.80;101446.28;4890729;29;20055;-80
2023/06/04 00:32:46;;;;;;;2.63;2.13;;;;;;;11.48;47.10;101449.75;4881898;29;20045;-81
2023/06/04 00:35:13;;;;;;;3.63;2.15;;;;;;;11.48;46.76;101449.75;4881365;29;20123;-79
2023/06/04 00:37:39;;;;;;;2.58;2.33;;;;;;;11.49;46.88;101455.88;4867864;29;20104;-78
2023/06/04 00:40:07;;;;;;;5.88;1.83;;;;;;;11.47;46.65;101455.00;4867112;29;20408;-79
2023/06/04 00:42:33;;;;;;;1.88;1.30;;;;;;;11.44;46.63;101448.00;4883131;29;20099;-78
2023/06/04 00:45:00;;;;;;;1.35;1.20;;;;;;;11.40;47.06;101457.59;4876172;29;20056;-79
2023/06/04 00:47:27;;;;;;;1.70;1.60;;;;;;;11.36;46.82;101455.00;4875664;29;20047;-80
2023/06/04 00:49:58;;;;;;;3.30;1.55;;;;;;;11.37;47.30;101448.91;4891199;29;20048;-81
2023/06/04 00:52:25;;;;;;;1.73;1.13;;;;;;;11.31;47.55;101451.50;4890552;29;20069;-79
2023/06/04 00:54:54;;;;;;;1.45;1.35;;;;;;;11.29;47.43;101451.50;4887760;29;20492;-78
2023/06/04 00:57:22;;;;;;;2.05;1.75;;;;;;;11.25;47.75;101455.88;4883045;29;20040;-80
2023/06/04 00:59:50;;;;;;;3.85;1.40;;;;;;;11.23;47.50;101451.50;4907382;29;20472;-79
2023/06/04 01:02:24;;;;;;;1.20;0.80;;;;;;;11.16;47.65;101461.09;4882055;29;20048;-79
2023/06/04 01:05:20;;;;;;;0.80;0.80;;;;;;;11.13;48.25;101457.59;4898138;29;20096;-80
2023/06/04 01:07:48;;;;;;;1.33;0.98;;;;;;;11.09;48.22;101457.59;4897129;29;20045;-79
2023/06/04 01:10:15;;;;;;;1.63;1.50;;;;;;;11.07;48.23;101446.22;4885287;29;20048;-80
2023/06/04 01:12:43;;;;;;;1.40;0.80;;;;;;;11.02;48.20;101450.59;4890979;29;20060;-80
2023/06/04 01:15:12;;;;;;;1.70;0.82;;;;;;;10.99;48.75;101460.16;4896989;29;20052;-78
2023/06/04 01:17:42;;;;;;;1.90;0.85;;;;;;;10.96;48.60;101453.19;4913048;29;20045;-79
2023/06/04 01:20:34;;;;;;;1.45;0.82;;;;;;;10.94;49.40;101444.47;4912921;29;20045;-82
2023/06/04 01:23:16;;;;;;;1.92;1.40;;;;;;;10.90;49.38;101453.19;4896751;29;20048;-79
2023/06/04 01:25:45;;;;;;;3.53;0.88;;;;;;;10.89;49.05;101448.81;4897134;29;20100;-80
2023/06/04 01:28:15;;;;;;;1.25;1.10;;;;;;;10.85;49.41;101447.91;4897038;29;20104;-79
2023/06/04 01:30:47;;;;;;;0.90;0.60;;;;;;;10.85;49.83;101447.91;4897526;29;20056;-88
2023/06/04 01:33:16;;;;;;;0.90;0.77;;;;;;;10.86;49.55;101440.94;4897038;29;20041;-80
2023/06/04 01:35:43;;;;;;;1.65;1.02;;;;;;;10.83;49.64;101438.31;4882074;29;20059;-80
2023/06/04 01:38:11;;;;;;;2.25;1.33;;;;;;;10.80;49.51;101439.19;4896986;29;20088;-79
2023/06/04 01:40:37;;;;;;;3.75;0.82;;;;;;;10.76;50.00;101442.66;4897298;29;20516;-80
2023/06/04 01:43:04;;;;;;;2.47;0.88;;;;;;;10.75;49.89;101443.53;4881721;29;20369;-79
2023/06/04 01:45:31;;;;;;;1.25;1.08;;;;;;;10.72;50.26;101441.78;4896614;29;20415;-82
2023/06/04 01:47:57;;;;;;;1.33;1.05;;;;;;;10.70;50.35;101445.25;4896544;29;20404;-83
2023/06/04 01:50:24;;;;;;;3.25;1.33;;;;;;;10.63;50.85;101440.88;4896153;29;20362;-79
2023/06/04 01:52:51;;;;;;;5.72;1.88;;;;;;;10.56;51.12;101440.84;4911336;29;20131;-80
2023/06/04 01:55:18;;;;;;;4.68;2.15;;;;;;;10.47;51.60;101442.53;4896205;29;20052;-79
2023/06/04 01:57:46;;;;;;;3.78;1.80;;;;;;;10.39;52.07;101443.41;4880761;29;20044;-80
2023/06/04 02:00:14;;;;;;;1.98;1.83;;;;;;;10.30;53.06;101442.44;4920117;29;20066;-79
2023/06/04 02:02:42;;;;;;;7.43;1.58;;;;;;;10.27;53.51;101443.28;4904655;29;20393;-81
2023/06/04 02:05:10;;;;;;;2.83;2.45;;;;;;;10.22;54.27;101445.91;4924303;29;20051;-79
2023/06/04 02:07:41;;;;;;;3.13;1.90;;;;;;;10.20;54.89;101452.00;4915061;29;20047;-81
2023/06/04 02:10:09;;;;;;;3.55;1.55;;;;;;;10.14;54.40;101446.72;4915324;29;20443;-80
2023/06/04 02:12:38;;;;;;;5.63;2.55;;;;;;;10.07;55.01;101445.81;4899709;29;20044;-83
2023/06/04 02:15:06;;;;;;;3.45;1.92;;;;;;;10.01;55.31;101451.91;4924711;29;20052;-81
2023/06/04 02:17:36;;;;;;;2.00;1.83;;;;;;;9.94;56.13;101443.09;4910574;29;20166;-84
2023/06/04 02:20:09;;;;;;;4.97;2.33;;;;;;;9.86;56.68;101444.81;4911167;29;20760;-80
2023/06/04 02:22:35;;;;;;;3.83;2.13;;;;;;;9.80;56.97;101442.16;4915145;29;20060;-79
2023/06/04 02:25:02;;;;;;;3.03;2.38;;;;;;;9.75;57.24;101449.09;4914442;29;20047;-79
2023/06/04 02:27:28;;;;;;;2.75;2.10;;;;;;;9.70;57.32;101442.94;4917918;29;20071;-79
2023/06/04 02:29:55;;;;;;;4.38;1.92;;;;;;;9.62;58.25;101442.00;4910613;29;20047;-79
2023/06/04 02:32:21;;;;;;;2.83;1.75;;;;;;;9.56;58.76;101438.50;4913806;29;20063;-82
2023/06/04 02:34:48;;;;;;;2.13;1.60;;;;;;;9.51;58.81;101441.94;4904786;29;20048;-79
2023/06/04 02:37:15;;;;;;;2.47;2.13;;;;;;;9.46;59.42;101446.25;4923416;29;20039;-81
2023/06/04 02:39:41;;;;;;;1.88;1.77;;;;;;;9.37;59.64;101447.03;4901303;29;20051;-79
2023/06/04 02:42:08;;;;;;;5.45;2.53;;;;;;;9.36;59.83;101453.13;4914534;29;20044;-79
2023/06/04 02:44:35;;;;;;;3.50;2.15;;;;;;;9.34;60.76;101439.19;4909731;29;20446;-85
2023/06/04 02:47:01;;;;;;;3.97;1.77;;;;;;;9.30;60.80;101455.72;4913555;29;20062;-83
2023/06/04 02:49:27;;;;;;;6.15;2.53;;;;;;;9.30;61.59;101455.72;4902198;29;20072;-80
2023/06/04 02:51:54;;;;;;;5.47;2.55;;;;;;;9.26;61.61;101452.19;4913294;29;20047;-79
2023/06/04 02:54:20;;;;;;;4.40;2.42;;;;;;;9.19;61.99;101464.31;4900949;29;20131;-79
2023/06/04 02:56:48;;;;;;;2.97;2.08;;;;;;;9.15;61.65;101466.88;4898751;29;20048;-79
2023/06/04 02:59:15;;;;;;;2.55;2.20;;;;;;;9.13;62.16;101460.78;4906759;29;20052;-79
2023/06/04 03:01:42;;;;;;;4.47;2.65;;;;;;;9.09;62.63;101460.72;4886308;29;20056;-79
2023/06/04 03:04:15;;;;;;;4.95;2.00;;;;;;;9.08;62.38;101463.31;4872787;29;20055;-79
2023/06/04 03:06:44;;;;;;;3.70;2.00;;;;;;;9.06;62.71;101459.81;4900905;29;20052;-79
2023/06/04 03:09:12;;;;;;;3.97;2.03;;;;;;;9.06;62.84;101471.16;4875379;29;20053;-79
2023/06/04 03:11:38;;;;;;;3.95;1.60;;;;;;;9.08;63.39;101458.09;4880709;29;20059;-82
2023/06/04 03:14:05;;;;;;;3.60;2.42;;;;;;;9.03;63.28;101462.41;4880537;29;20049;-83
2023/06/04 03:16:31;;;;;;;2.88;2.05;;;;;;;9.00;63.62;101459.75;4849875;29;20104;-80
2023/06/04 03:18:58;;;;;;;2.25;1.90;;;;;;;8.96;64.54;101464.06;4879965;29;20129;-79
2023/06/04 03:21:25;;;;;;;2.70;2.03;;;;;;;8.96;64.07;101461.47;4890663;29;20044;-78
2023/06/04 03:23:52;;;;;;;1.75;1.35;;;;;;;8.93;64.24;101469.28;4877329;29;20045;-79
2023/06/04 03:26:21;;;;;;;2.90;1.35;;;;;;;8.92;65.19;101464.91;4900755;29;20064;-84
2023/06/04 03:28:47;;;;;;;2.47;1.25;;;;;;;8.94;65.27;101471.00;4874383;29;20041;-79
2023/06/04 03:31:16;;;;;;;1.40;1.30;;;;;;;8.93;65.71;101472.75;4862108;29;20060;-85
2023/06/04 03:33:42;;;;;;;2.03;1.65;;;;;;;8.94;65.85;101465.78;4900454;29;20063;-78
2023/06/04 03:36:11;;;;;;;1.50;1.30;;;;;;;8.95;66.62;101464.94;4890478;29;20066;-78
2023/06/04 03:38:37;;;;;;;1.50;1.40;;;;;;;8.92;66.43;101464.91;4907817;29;20123;-79
2023/06/04 03:41:03;;;;;;;2.25;1.27;;;;;;;8.90;66.73;101470.13;4883681;29;20049;-79
2023/06/04 03:43:30;;;;;;;0.88;0.80;;;;;;;8.89;66.02;101470.06;4864313;29;20048;-79
2023/06/04 03:45:56;;;;;;;1.80;1.30;;;;;;;8.87;66.46;101459.63;4876411;29;20138;-79
2023/06/04 03:48:23;;;;;;;1.25;0.82;;;;;;;8.92;66.67;101467.50;4871696;29;20048;-79
2023/06/04 03:50:50;;;;;;;0.80;0.80;;;;;;;8.92;66.05;101467.50;4901227;29;20115;-79
2023/06/04 03:53:17;;;;;;;0.77;0.70;;;;;;;8.93;66.29;101467.53;4868796;29;20089;-81
2023/06/04 03:55:43;;;;;;;2.17;1.00;;;;;;;8.93;66.19;101467.53;4891201;29;20101;-79
2023/06/04 03:58:11;;;;;;;1.08;0.80;;;;;;;8.97;66.29;101458.00;4906440;29;20044;-79
2023/06/04 04:00:37;;;;;;;1.00;1.00;;;;;;;9.04;65.98;101464.16;4918723;29;20064;-80
2023/06/04 04:03:04;;;;;;;0.80;0.73;;;;;;;9.08;66.03;101461.56;4891131;29;20059;-78
2023/06/04 04:05:30;;;;;;;1.63;1.20;;;;;;;9.13;65.61;101466.00;4896168;29;20527;-78
2023/06/04 04:07:57;;;;;;;6.70;1.20;;;;;;;9.17;65.33;101462.53;4912108;29;20050;-78
2023/06/04 04:10:23;;;;;;;0.98;0.98;;;;;;;9.22;64.88;101455.63;4889598;29;20048;-79
2023/06/04 04:12:51;;;;;;;1.20;1.10;;;;;;;9.24;65.27;101453.88;4891653;29;20044;-83
2023/06/04 04:15:17;;;;;;;1.13;0.73;;;;;;;9.30;65.20;101466.16;4902171;29;20084;-79
2023/06/04 04:17:44;;;;;;;2.25;1.40;;;;;;;9.37;64.83;101457.50;4917498;29;20518;-80
2023/06/04 04:20:11;;;;;;;1.50;1.40;;;;;;;9.44;65.25;101464.53;4917405;29;20036;-79
2023/06/04 04:22:42;;;;;;;1.48;1.38;;;;;;;9.51;64.51;101471.56;4901465;29;20048;-80
2023/06/04 04:25:09;;;;;;;2.45;1.65;;;;;;;9.56;64.19;101458.53;4902748;29;20499;-81
2023/06/04 04:27:38;;;;;;;1.10;1.10;;;;;;;9.64;64.37;101467.31;4902561;29;20040;-79
2023/06/04 04:30:07;;;;;;;4.40;1.02;;;;;;;9.70;64.26;101471.69;4901867;29;20048;-78
2023/06/04 04:32:34;;;;;;;2.65;1.52;;;;;;;9.76;64.02;101466.53;4907034;29;20056;-79
2023/06/04 04:35:00;;;;;;;1.90;1.15;;;;;;;9.81;64.25;101470.06;4925368;29;20119;-78
2023/06/04 04:37:27;;;;;;;2.00;1.20;;;;;;;9.86;63.77;101470.09;4900820;29;20725;-78
2023/06/04 04:39:53;;;;;;;1.50;1.10;;;;;;;9.93;63.48;101470.16;4885671;29;20047;-78
2023/06/04 04:42:20;;;;;;;3.90;1.83;;;;;;;9.96;63.59;101469.31;4909671;29;20059;-78
2023/06/04 04:44:48;;;;;;;1.23;1.13;;;;;;;10.01;63.46;101471.94;4886428;29;20048;-81
2023/06/04 04:47:16;;;;;;;1.48;1.38;;;;;;;10.04;63.45;101471.97;4900489;29;20064;-82
2023/06/04 04:49:43;;;;;;;1.35;1.10;;;;;;;10.06;63.71;101468.50;4900866;29;20044;-82
2023/06/04 04:52:09;;;;;;;1.05;0.95;;;;;;;10.12;63.77;101467.66;4915797;29;20044;-79
2023/06/04 04:54:36;;;;;;;1.52;1.40;;;;;;;10.16;63.99;101463.31;4901346;29;20044;-80
2023/06/04 04:57:02;;;;;;;1.52;1.40;;;;;;;10.20;63.75;101470.31;4882242;29;20044;-85
2023/06/04 04:59:29;;;;;;;1.05;0.98;;;;;;;10.21;63.66;101479.91;4914003;29;20460;-79
2023/06/04 05:01:55;;;;;;;1.30;1.20;;;;;;;10.24;63.26;101472.94;4896632;29;20393;-79
2023/06/04 05:04:22;;;;;;;2.55;0.95;;;;;;;10.28;63.15;101476.44;4901804;29;20474;-79
2023/06/04 05:06:48;;;;;;;1.20;1.05;;;;;;;10.34;62.97;101475.59;4900315;29;20733;-80
2023/06/04 05:09:15;;;;;;;2.08;1.13;;;;;;;10.37;63.43;101473.06;4917495;29;20431;-79
2023/06/04 05:11:42;;;;;;;4.50;1.00;;;;;;;10.41;63.72;101470.44;4907189;29;20052;-79
2023/06/04 05:14:08;;;;;;;1.15;1.15;;;;;;;10.48;63.23;101478.31;4916236;29;20044;-80
2023/06/04 05:16:36;;;;;;;2.10;1.40;;;;;;;10.51;63.22;101473.13;4901235;29;20051;-79
2023/06/04 05:19:02;;;;;;;1.20;1.10;;;;;;;10.55;62.98;101480.97;4915869;29;20044;-79
2023/06/04 05:21:29;;;;;;;3.63;1.30;;;;;;;10.59;63.11;101476.66;4905466;29;20048;-81
2023/06/04 05:23:56;;;;;;;1.33;1.27;;;;;;;10.65;62.93;101478.41;4884854;29;20219;-80
2023/06/04 05:26:23;;;;;;;1.17;0.85;;;;;;;10.70;62.22;101484.53;4898518;29;20056;-84
2023/06/04 05:28:50;;;;;;;12.40;1.40;;;;;;;10.75;62.36;101486.31;4901154;29;20099;-81
2023/06/04 05:31:17;;;;;;;1.50;0.73;;;;;;;10.78;62.23;101480.22;4905438;29;20044;-81
2023/06/04 05:33:44;;;;;;;1.80;1.33;;;;;;;10.81;62.92;101481.94;4907362;29;20044;-79
2023/06/04 05:36:12;;;;;;;1.33;1.00;;;;;;;10.81;62.13;101485.47;4900248;29;20052;-79
2023/06/04 05:38:38;;;;;;;1.92;1.13;;;;;;;10.85;61.85;101486.34;4884882;29;20416;-79
2023/06/04 05:41:05;;;;;;;1.17;1.13;;;;;;;10.89;61.37;101488.09;4883553;29;20059;-79
2023/06/04 05:43:31;;;;;;;1.23;0.82;;;;;;;10.93;60.91;101492.47;4915888;29;20475;-79
2023/06/04 05:45:58;;;;;;;1.38;1.10;;;;;;;10.98;60.89;101487.25;4907189;29;20047;-80
2023/06/04 05:48:24;;;;;;;1.45;1.17;;;;;;;11.00;60.53;101486.41;4906677;29;20056;-79
2023/06/04 05:50:51;;;;;;;1.80;1.58;;;;;;;11.02;60.54;101489.03;4897751;29;20571;-86
2023/06/04 05:53:17;;;;;;;1.85;1.30;;;;;;;11.09;60.20;101494.28;4912619;29;20056;-82
2023/06/04 05:55:44;;;;;;;1.80;1.13;;;;;;;11.18;60.03;101490.78;4900662;29;20052;-78
2023/06/04 05:58:10;;;;;;;0.90;0.90;;;;;;;11.24;59.60;101489.94;4899132;29;20040;-79
2023/06/04 06:00:37;;;;;;;1.55;0.93;;;;;;;11.30;59.00;101489.91;4865024;29;20148;-78
2023/06/04 06:03:06;;;;;;;0.98;0.98;;;;;;;11.39;58.42;101492.59;4880888;29;20052;-84
2023/06/04 06:05:33;;;;;;;0.95;0.95;;;;;;;11.46;57.90;101489.94;4879455;29;20052;-78
2023/06/04 06:08:00;;;;;;;1.15;1.08;;;;;;;11.50;57.92;101487.34;4892901;29;20471;-79
2023/06/04 06:10:26;;;;;;;0.98;0.80;;;;;;;11.60;57.45;101493.44;4865440;29;20127;-79
2023/06/04 06:12:53;;;;;;;2.13;1.27;;;;;;;11.69;56.88;101496.09;4881060;29;20041;-81
2023/06/04 06:15:20;;;;;;;1.02;0.95;;;;;;;11.79;56.07;101502.19;4884881;29;20040;-78
2023/06/04 06:17:47;;;;;;;2.22;0.90;;;;;;;11.85;55.54;101501.31;4882822;29;20055;-80
2023/06/04 06:20:17;;;;;;;1.05;0.90;;;;;;;11.94;54.81;101496.06;4863552;29;20052;-78
2023/06/04 06:22:44;;;;;;;1.02;0.75;;;;;;;12.03;54.37;101503.09;4885166;29;20083;-80
2023/06/04 06:25:12;;;;;;;2.50;1.10;;;;;;;12.13;52.97;101503.97;4882272;29;20100;-78
2023/06/04 06:27:40;;;;;;;2.45;1.13;;;;;;;12.19;52.84;101498.69;4867468;29;20330;-78
2023/06/04 06:30:08;;;;;;;2.45;1.15;;;;;;;12.24;52.63;101496.91;4885443;29;20055;-79
2023/06/04 06:32:35;;;;;;;2.75;1.05;;;;;;;12.29;52.61;101496.91;4889531;29;20077;-84
2023/06/04 06:35:03;;;;;;;2.55;0.90;;;;;;;12.37;51.50;101503.91;4870451;29;20458;-79
2023/06/04 06:37:29;;;;;;;3.70;1.15;;;;;;;12.48;51.20;101508.25;4871841;29;20435;-79
2023/06/04 06:39:57;;;;;;;3.40;1.00;;;;;;;12.60;50.39;101505.56;4873105;29;20044;-85
2023/06/04 06:42:23;;;;;;;1.27;1.17;;;;;;;12.70;50.54;101506.44;4876986;29;20051;-82
2023/06/04 06:44:50;;;;;;;1.73;1.15;;;;;;;12.75;50.24;101504.66;4865473;29;20052;-80
2023/06/04 06:47:17;;;;;;;1.17;0.82;;;;;;;12.85;50.29;101502.84;4882876;29;20036;-79
2023/06/04 06:49:44;;;;;;;2.05;1.48;;;;;;;12.90;50.02;101506.31;4882561;29;20068;-86
2023/06/04 06:52:10;;;;;;;1.48;1.02;;;;;;;12.99;49.48;101508.03;4879550;29;20048;-79
2023/06/04 06:54:37;;;;;;;1.50;1.40;;;;;;;13.09;49.42;101509.75;4868469;29;20135;-80
2023/06/04 06:57:08;;;;;;;2.30;1.00;;;;;;;13.20;48.35;101509.66;4883924;29;20049;-83
2023/06/04 06:59:35;;;;;;;0.88;0.60;;;;;;;13.29;48.00;101508.75;4879409;29;20165;-78
2023/06/04 07:02:01;;;;;;;0.90;0.90;;;;;;;13.38;47.63;101508.72;4903753;29;20100;-81
2023/06/04 07:04:28;;;;;;;2.50;1.02;;;;;;;13.50;47.10;101516.50;4898609;29;20059;-80
2023/06/04 07:06:54;;;;;;;1.48;0.73;;;;;;;13.58;47.14;101511.19;4900599;29;20053;-79
2023/06/04 07:09:21;;;;;;;1.52;1.00;;;;;;;13.69;46.54;101517.25;4868124;29;20045;-79
2023/06/04 07:11:47;;;;;;;2.92;1.00;;;;;;;13.83;45.92;101514.50;4869739;29;20056;-79
2023/06/04 07:14:14;;;;;;;1.20;1.02;;;;;;;13.98;46.53;101516.13;4885769;29;20055;-80
2023/06/04 07:16:42;;;;;;;2.33;1.15;;;;;;;14.18;46.19;101512.41;4902315;29;20103;-83
2023/06/04 07:19:09;;;;;;;0.90;0.63;;;;;;;14.49;45.10;101510.31;4929055;23;20060;-81
2023/06/04 07:21:36;;;;;;;0.80;0.80;;;;;;;15.01;44.22;101514.09;4907775;29;20181;-79
2023/06/04 07:24:02;;;;;;;3.03;1.13;;;;;;;15.61;42.56;101503.56;4929427;29;20044;-80
2023/06/04 07:26:30;;;;;;;1.08;0.85;;;;;;;16.30;42.02;101520.00;4931659;29;20059;-82
2023/06/04 07:28:57;;;;;;;11.02;1.15;;;;;;;17.14;40.89;101508.56;4895418;29;20075;-83
2023/06/04 07:31:23;;;;;;;1.45;0.77;;;;;;;17.91;39.32;101504.06;4931962;29;20055;-81
2023/06/04 07:33:50;;;;;;;1.75;0.82;;;;;;;18.44;37.90;101502.69;4932061;29;20051;-83
2023/06/04 07:36:17;;;;;;;0.93;0.70;;;;;;;18.94;36.70;101499.50;4916092;29;20051;-79
2023/06/04 07:38:44;;;;;;;2.00;0.57;;;;;;;19.66;36.78;101499.84;4932142;29;20070;-79
2023/06/04 07:41:10;;;;;;;2.20;0.77;;;;;;;20.42;35.10;101493.72;4916474;29;20409;-81
2023/06/04 07:43:37;;;;;;;1.77;0.93;;;;;;;20.81;33.76;101498.50;4916422;29;20047;-79
2023/06/04 07:46:07;;;;;;;0.65;0.65;;;;;;;21.04;31.90;101496.72;4901237;29;20063;-79
2023/06/04 07:48:33;;;;;;;2.40;0.70;;;;;;;21.24;33.23;101504.78;4933489;29;20122;-79
2023/06/04 07:51:02;;;;;;;1.60;1.25;;;;;;;21.70;32.25;101499.38;4919724;29;20527;-82
2023/06/04 07:53:28;;;;;;;1.33;0.98;;;;;;;22.30;30.64;101502.09;4932171;29;20058;-81
2023/06/04 07:55:55;;;;;;;1.48;0.85;;;;;;;22.52;30.55;101508.31;4933037;29;20268;-80
2023/06/04 07:58:22;;;;;;;2.72;1.15;;;;;;;22.63;29.62;101512.22;4916503;29;20055;-82
2023/06/04 08:00:49;;;;;;;1.55;0.93;;;;;;;22.99;30.02;101505.22;4924771;29;20044;-81
2023/06/04 08:03:17;;;;;;;2.08;1.00;;;;;;;23.49;29.53;101505.53;4916112;29;20215;-82
2023/06/04 08:05:43;;;;;;;0.80;0.60;;;;;;;23.81;28.59;101500.38;4916576;29;20055;-81
2023/06/04 08:08:10;;;;;;;1.17;0.88;;;;;;;23.95;27.42;101504.09;4912861;29;20060;-81
2023/06/04 08:10:36;;;;;;;1.15;0.77;;;;;;;24.17;27.24;101505.66;4919547;29;20051;-80
2023/06/04 08:13:03;;;;;;;0.90;0.70;;;;;;;24.56;27.39;101507.13;4915753;29;20505;-81
2023/06/04 08:15:29;;;;;;;3.85;1.25;;;;;;;25.09;26.17;101504.25;4915726;29;20491;-80
2023/06/04 08:17:56;;;;;;;1.75;0.70;;;;;;;24.98;26.20;101501.31;4925410;29;20086;-80
2023/06/04 08:20:23;;;;;;;0.88;0.65;;;;;;;25.44;26.07;101493.34;4923553;29;20070;-80
2023/06/04 08:22:49;;;;;;;0.80;0.80;;;;;;;26.12;25.99;101504.56;4918596;29;20086;-84
2023/06/04 08:25:17;;;;;;;2.83;0.88;;;;;;;26.65;25.30;101510.22;4911845;29;20062;-80
2023/06/04 08:27:44;;;;;;;1.42;1.33;;;;;;;27.23;24.77;101506.50;4916749;29;20067;-92
2023/06/04 08:30:10;;;;;;;1.90;1.00;;;;;;;27.08;23.59;101504.81;4927022;29;20070;-80
2023/06/04 08:32:37;;;;;;;0.60;0.60;;;;;;;27.11;23.86;101504.59;4918858;29;20051;-81
2023/06/04 08:35:05;;;;;;;1.40;0.60;;;;;;;27.59;23.31;101503.28;4914225;29;20056;-80
2023/06/04 08:37:31;;;;;;;0.80;0.68;;;;;;;27.21;22.64;101499.50;4915788;29;20079;-79
2023/06/04 08:39:57;;;;;;;1.40;0.82;;;;;;;27.72;22.67;101502.34;4942896;29;20509;-80
2023/06/04 08:42:31;;;;;;;0.82;0.57;;;;;;;28.17;21.77;101504.72;4906999;29;20051;-78
2023/06/04 08:44:58;;;;;;;0.98;0.82;;;;;;;27.72;21.99;101502.34;4921751;29;20103;-80
2023/06/04 08:47:26;;;;;;;0.82;0.60;;;;;;;28.03;21.67;101504.78;4938603;29;20146;-80
2023/06/04 08:49:56;;;;;;;1.75;0.50;;;;;;;27.81;22.45;101505.38;4929922;29;20058;-80
2023/06/04 08:52:24;;;;;;;1.50;0.90;;;;;;;28.64;21.58;101504.09;4916826;29;20401;-80
2023/06/04 08:54:53;;;;;;;2.08;0.57;;;;;;;29.33;21.05;101504.50;4919756;29;20099;-79
2023/06/04 08:57:20;;;;;;;1.95;0.90;;;;;;;29.24;20.44;101507.81;4931841;29;20106;-80
2023/06/04 08:59:47;;;;;;;1.27;0.60;;;;;;;28.58;20.41;101509.94;4909763;29;20043;-79
2023/06/04 09:02:18;;;;;;;0.30;0.30;;;;;;;28.08;20.57;101512.56;4910301;29;20040;-83
2023/06/04 09:04:45;;;;;;;0.63;0.63;;;;;;;28.26;20.83;101511.25;4929264;29;20047;-85
2023/06/04 09:07:14;;;;;;;0.60;0.60;;;;;;;28.79;20.31;101510.25;4922051;29;20044;-79
2023/06/04 09:09:41;;;;;;;1.33;0.70;;;;;;;28.74;20.08;101515.97;4919682;29;20048;-81
2023/06/04 09:12:11;;;;;;;1.23;0.60;;;;;;;28.73;19.71;101508.00;4924254;29;20036;-80
2023/06/04 09:14:38;;;;;;;0.85;0.70;;;;;;;29.13;20.07;101511.31;4925856;29;20059;-80
2023/06/04 09:17:05;;;;;;;0.50;0.30;;;;;;;29.91;19.29;101510.94;4917336;29;20507;-79
2023/06/04 09:19:31;;;;;;;0.65;0.30;;;;;;;30.67;18.03;101508.59;4892804;29;20056;-83
2023/06/04 09:22:02;;;;;;;0.40;0.40;;;;;;;30.18;18.14;101505.22;4895249;29;20469;-81
2023/06/04 09:24:50;;;;;;;0.50;0.50;;;;;;;30.79;17.54;101498.63;4884382;29;20056;-79
2023/06/04 09:27:22;;;;;;;0.45;0.45;;;;;;;31.58;17.36;101508.34;4889736;29;20055;-81
2023/06/04 09:30:00;;;;;;;3.20;0.52;;;;;;;31.77;17.08;101503.13;4892251;29;20060;-82
2023/06/04 09:32:28;;;;;;;1.38;0.70;;;;;;;31.73;17.21;101504.34;4895758;29;20044;-83
2023/06/04 09:34:57;;;;;;;0.88;0.50;;;;;;;32.33;16.30;101499.19;4895603;29;20055;-81
2023/06/04 09:37:24;;;;;;;1.02;0.70;;;;;;;33.18;16.54;101500.69;4896516;29;20053;-81
2023/06/04 09:39:57;;;;;;;0.45;0.45;;;;;;;32.97;15.99;101507.09;4895192;29;20056;-81
2023/06/04 09:42:24;;;;;;;0.50;0.50;;;;;;;32.48;16.38;101510.50;4884190;29;20041;-80
2023/06/04 09:44:51;;;;;;;0.65;0.65;;;;;;;32.59;16.43;101506.84;4890696;29;20049;-81
2023/06/04 09:47:17;;;;;;;0.85;0.55;;;;;;;33.06;16.37;101506.25;4894110;29;20048;-82
2023/06/04 09:49:45;;;;;;;1.20;0.38;;;;;;;33.80;15.66;101509.44;4881205;29;20048;-80
2023/06/04 09:52:13;;;;;;;0.50;0.50;;;;;;;33.35;16.23;101501.88;4888145;29;20045;-83
2023/06/04 09:54:42;;;;;;;1.48;0.30;;;;;;;33.66;15.51;101499.84;4891207;29;20511;-80
2023/06/04 09:57:19;;;;;;;1.65;0.50;;;;;;;34.22;14.79;101506.31;4876266;29;20111;-82
2023/06/04 09:59:50;;;;;;;0.75;0.75;;;;;;;34.67;15.17;101501.13;4873305;29;20067;-82
2023/06/04 10:02:22;;;;;;;0.60;0.45;;;;;;;34.80;14.82;101501.66;4894401;29;20057;-79
2023/06/04 10:04:57;;;;;;;;;;;;;;;34.72;14.44;101499.69;4890022;29;20064;-81
2023/06/04 10:07:26;;;;;;;0.40;0.40;;;;;;;34.49;14.93;101498.41;4888126;29;20375;-83
2023/06/04 10:09:57;;;;;;;1.83;0.85;;;;;;;34.77;14.57;101501.94;4888147;29;20681;-80
2023/06/04 10:12:29;;;;;;;0.50;0.50;;;;;;;34.14;15.15;101492.63;4888251;29;20492;-81
2023/06/04 10:15:03;;;;;;;1.65;0.60;;;;;;;34.49;14.99;101493.81;4884492;29;20049;-83
2023/06/04 10:17:30;;;;;;;2.45;0.95;;;;;;;34.61;14.73;101498.03;4897739;29;20378;-84
2023/06/04 10:19:59;;;;;;;1.55;0.50;;;;;;;34.04;14.67;101498.09;4880114;29;20509;-84
2023/06/04 10:22:25;;;;;;;0.60;0.50;;;;;;;34.42;15.05;101492.72;4892639;29;20059;-83
2023/06/04 10:24:52;;;;;;;0.80;0.32;;;;;;;35.31;14.55;101485.69;4890524;29;20048;-81
2023/06/04 10:27:20;;;;;;;0.95;0.40;;;;;;;35.21;14.08;101488.47;4887420;29;20441;-80
2023/06/04 10:29:47;;;;;;;1.15;0.70;;;;;;;35.30;14.38;101492.13;4872884;29;20045;-81
2023/06/04 10:32:13;;;;;;;0.60;0.60;;;;;;;34.64;14.73;101480.56;4894569;29;20390;-85
2023/06/04 10:34:40;;;;;;;1.75;0.60;;;;;;;35.18;14.40;101482.53;4878058;29;20052;-81
2023/06/04 10:37:07;;;;;;;2.60;0.50;;;;;;;34.61;13.70;101481.72;4876498;29;20075;-85
2023/06/04 10:39:36;;;;;;;0.60;0.52;;;;;;;34.31;14.25;101477.41;4889612;29;20080;-81
2023/06/04 10:42:05;;;;;;;0.77;0.77;;;;;;;35.15;13.71;101480.97;4885880;29;20057;-86
2023/06/04 10:44:33;;;;;;;2.22;0.57;;;;;;;35.85;13.63;101480.19;4877293;29;20080;-80
2023/06/04 10:47:00;;;;;;;1.85;0.50;;;;;;;36.19;13.17;101478.53;4887461;29;20484;-83
2023/06/04 10:49:31;;;;;;;0.47;0.45;;;;;;;35.08;13.23;101493.47;4889923;29;20059;-81
2023/06/04 10:52:02;;;;;;;0.50;0.50;;;;;;;34.97;13.54;101489.13;4894177;29;20061;-87
2023/06/04 10:54:29;;;;;;;0.55;0.55;;;;;;;34.87;13.61;101489.16;4886420;29;20116;-84
2023/06/04 10:56:56;;;;;;;1.77;0.68;;;;;;;35.67;13.28;101491.13;4887492;29;20489;-83
2023/06/04 10:59:24;;;;;;;1.77;0.57;;;;;;;36.53;12.86;101485.84;4889460;29;20480;-81
2023/06/04 11:01:50;;;;;;;0.60;0.52;;;;;;;36.95;12.41;101484.97;4889186;29;20045;-84
2023/06/04 11:04:25;;;;;;;0.40;0.40;;;;;;;37.55;11.74;101483.84;4890702;29;20599;-82
2023/06/04 11:07:09;;;;;;;1.67;0.40;;;;;;;37.37;11.33;101478.56;4901206;29;20045;-81
2023/06/04 11:09:37;;;;;;;1.88;0.63;;;;;;;37.01;12.69;101483.44;4892330;29;20616;-84
2023/06/04 11:12:06;;;;;;;1.08;0.70;;;;;;;36.59;12.34;101474.28;4870886;29;20433;-81
2023/06/04 11:14:33;;;;;;;1.30;1.20;;;;;;;36.51;12.53;101487.91;4883294;29;20484;-82
2023/06/04 11:17:13;;;;;;;0.55;0.50;;;;;;;36.89;11.77;101481.03;4892701;29;20124;-83
2023/06/04 11:19:40;;;;;;;0.77;0.75;;;;;;;36.33;11.87;101471.59;4890863;29;20634;-79
2023/06/04 11:22:06;;;;;;;0.98;0.70;;;;;;;35.95;12.30;101471.94;4888324;29;20057;-81
2023/06/04 11:24:33;;;;;;;0.50;0.50;;;;;;;35.81;12.39;101478.78;4876250;29;20041;-80
2023/06/04 11:27:02;;;;;;;0.50;0.50;;;;;;;34.80;12.71;101479.91;4889948;29;20043;-82
2023/06/04 11:29:29;;;;;;;0.50;0.50;;;;;;;35.38;13.04;101472.34;4887948;29;20091;-86